KASX/ASX METAR and TAF weather

Enter ICAO airport designator
Station Type Date Time Source
KASX METAR 2020/08/11 17:53 UTC NOAA

KASX 111753Z AUTO 24013G22KT 10SM CLR 27/15 A2991 RMK AO2 PK WND 22026/1730 SLP126 T02720150 10272 20144 56002


Station Type Date Time Source
KASX Decoded METAR 2020/08/11 17:53 UTC NOAA

ASHLAND KENNEDY MEMORIAL, WI, United States (KASX) 46-33N 090-55W 251M
Aug 11, 2020 - 01:53 PM EDT / 2020.08.11 1753 UTC
Wind: from the WSW (240 degrees) at 15 MPH (13 KT) gusting to 25 MPH (22 KT):0
Visibility: 10 mile(s):0
Sky conditions: clear
Temperature: 81.0 F (27.2 C)
Dew Point: 59.0 F (15.0 C)
Relative Humidity: 47%
Pressure (altimeter): 29.91 in. Hg (1012 hPa)
Pressure tendency: 0.01 inches (0.2 hPa) lower than three hours ago
ob: KASX 111753Z AUTO 24013G22KT 10SM CLR 27/15 A2991 RMK AO2 PK WND 22026/1730 SLP126 T02720150 10272 20144 56002
cycle: 18

Station Type Date Time Source
KASX TAF UTC NOAA

Error!

Example: see airport list